Time,TemperatureF,DewpointF,PressureIn,WindDirection,WindDirectionDegrees,WindSpeedMPH,WindSpeedGustMPH,Humidity,HourlyPrecipIn,Conditions,Clouds,dailyrainin,SoftwareType,DateUTC
2013-01-28 00:00:00,74.0,-99.9,30.24,East,100,21.0,24.0,-999,-99.99,,,-99.99,,2013-01-28 05:00:00,
2013-01-28 00:22:00,74.0,-99.9,30.24,East,100,21.0,24.0,-999,-99.99,,,-99.99,,2013-01-28 05:22:00,
2013-01-28 00:32:00,74.0,-99.9,30.24,East,100,21.0,24.0,-999,-99.99,,,-99.99,,2013-01-28 05:32:00,
2013-01-28 00:42:00,74.0,-99.9,30.24,East,100,21.0,24.0,-999,-99.99,,,-99.99,,2013-01-28 05:42:00,
2013-01-28 00:52:00,74.0,-99.9,30.24,East,100,21.0,24.0,-999,-99.99,,,-99.99,,2013-01-28 05:52:00,
2013-01-28 01:00:00,74.0,-99.9,30.24,ESE,110,20.0,22.0,-999,-99.99,,,-99.99,,2013-01-28 06:00:00,
2013-01-28 01:22:00,74.0,-99.9,30.24,ESE,110,20.0,22.0,-999,-99.99,,,-99.99,,2013-01-28 06:22:00,
2013-01-28 01:33:00,74.0,-99.9,30.24,ESE,110,20.0,22.0,-999,-99.99,,,-99.99,,2013-01-28 06:33:00,
2013-01-28 01:42:00,74.0,-99.9,30.24,ESE,110,20.0,22.0,-999,-99.99,,,-99.99,,2013-01-28 06:42:00,
2013-01-28 01:52:00,74.0,-99.9,30.24,ESE,110,20.0,22.0,-999,-99.99,,,-99.99,,2013-01-28 06:52:00,
2013-01-28 02:00:00,73.0,-99.9,30.23,East,100,18.0,21.0,-999,-99.99,,,-99.99,,2013-01-28 07:00:00,
2013-01-28 02:22:00,73.0,-99.9,30.23,East,100,18.0,21.0,-999,-99.99,,,-99.99,,2013-01-28 07:22:00,
2013-01-28 02:32:00,73.0,-99.9,30.23,East,100,18.0,21.0,-999,-99.99,,,-99.99,,2013-01-28 07:32:00,
2013-01-28 02:42:00,73.0,-99.9,30.23,East,100,18.0,21.0,-999,-99.99,,,-99.99,,2013-01-28 07:42:00,
2013-01-28 02:52:00,73.0,-99.9,30.23,East,100,18.0,21.0,-999,-99.99,,,-99.99,,2013-01-28 07:52:00,
2013-01-28 03:00:00,73.0,-99.9,30.22,East,100,18.0,22.0,-999,-99.99,,,-99.99,,2013-01-28 08:00:00,
2013-01-28 03:22:00,73.0,-99.9,30.22,East,100,18.0,22.0,-999,-99.99,,,-99.99,,2013-01-28 08:22:00,
2013-01-28 03:32:00,73.0,-99.9,30.22,East,100,18.0,22.0,-999,-99.99,,,-99.99,,2013-01-28 08:32:00,
2013-01-28 03:42:00,73.0,-99.9,30.22,East,100,18.0,22.0,-999,-99.99,,,-99.99,,2013-01-28 08:42:00,
2013-01-28 03:53:00,73.0,-99.9,30.22,East,100,18.0,22.0,-999,-99.99,,,-99.99,,2013-01-28 08:53:00,
2013-01-28 04:00:00,74.0,-99.9,30.22,ESE,110,18.0,21.0,-999,-99.99,,,-99.99,,2013-01-28 09:00:00,
2013-01-28 04:22:00,74.0,-99.9,30.22,ESE,110,18.0,21.0,-999,-99.99,,,-99.99,,2013-01-28 09:22:00,
2013-01-28 04:33:00,74.0,-99.9,30.22,ESE,110,18.0,21.0,-999,-99.99,,,-99.99,,2013-01-28 09:33:00,
2013-01-28 04:42:00,74.0,-99.9,30.22,ESE,110,18.0,21.0,-999,-99.99,,,-99.99,,2013-01-28 09:42:00,
2013-01-28 04:52:00,74.0,-99.9,30.22,ESE,110,18.0,21.0,-999,-99.99,,,-99.99,,2013-01-28 09:52:00,
2013-01-28 05:00:00,73.0,-99.9,30.22,East,100,15.0,17.0,-999,-99.99,,,-99.99,,2013-01-28 10:00:00,
2013-01-28 05:21:00,73.0,-99.9,30.22,East,100,15.0,17.0,-999,-99.99,,,-99.99,,2013-01-28 10:21:00,
2013-01-28 05:32:00,73.0,-99.9,30.22,East,100,15.0,17.0,-999,-99.99,,,-99.99,,2013-01-28 10:32:00,
2013-01-28 05:42:00,73.0,-99.9,30.22,East,100,15.0,17.0,-999,-99.99,,,-99.99,,2013-01-28 10:42:00,
2013-01-28 05:52:00,73.0,-99.9,30.22,East,100,15.0,17.0,-999,-99.99,,,-99.99,,2013-01-28 10:52:00,
2013-01-28 06:00:00,73.0,-99.9,30.24,East,100,15.0,17.0,-999,-99.99,,,-99.99,,2013-01-28 11:00:00,
2013-01-28 06:22:00,73.0,-99.9,30.24,East,100,15.0,17.0,-999,-99.99,,,-99.99,,2013-01-28 11:22:00,
2013-01-28 06:33:00,73.0,-99.9,30.24,East,100,15.0,17.0,-999,-99.99,,,-99.99,,2013-01-28 11:33:00,
2013-01-28 06:42:00,73.0,-99.9,30.24,East,100,15.0,17.0,-999,-99.99,,,-99.99,,2013-01-28 11:42:00,
2013-01-28 06:53:00,73.0,-99.9,30.24,East,100,15.0,17.0,-999,-99.99,,,-99.99,,2013-01-28 11:53:00,
2013-01-28 07:00:00,73.0,-99.9,30.25,ESE,110,17.0,21.0,-999,-99.99,,,-99.99,,2013-01-28 12:00:00,
2013-01-28 07:23:00,73.0,-99.9,30.25,ESE,110,17.0,21.0,-999,-99.99,,,-99.99,,2013-01-28 12:23:00,
2013-01-28 07:33:00,73.0,-99.9,30.25,ESE,110,17.0,21.0,-999,-99.99,,,-99.99,,2013-01-28 12:33:00,
2013-01-28 07:43:00,73.0,-99.9,30.25,ESE,110,17.0,21.0,-999,-99.99,,,-99.99,,2013-01-28 12:43:00,
2013-01-28 07:53:00,73.0,-99.9,30.25,ESE,110,17.0,21.0,-999,-99.99,,,-99.99,,2013-01-28 12:53:00,
2013-01-28 08:00:00,73.0,-99.9,30.26,East,100,17.0,18.0,-999,-99.99,,,-99.99,,2013-01-28 13:00:00,
2013-01-28 08:23:00,73.0,-99.9,30.26,East,100,17.0,18.0,-999,-99.99,,,-99.99,,2013-01-28 13:23:00,
2013-01-28 08:33:00,73.0,-99.9,30.26,East,100,17.0,18.0,-999,-99.99,,,-99.99,,2013-01-28 13:33:00,
2013-01-28 08:43:00,73.0,-99.9,30.26,East,100,17.0,18.0,-999,-99.99,,,-99.99,,2013-01-28 13:43:00,
2013-01-28 08:53:00,73.0,-99.9,30.26,East,100,17.0,18.0,-999,-99.99,,,-99.99,,2013-01-28 13:53:00,
2013-01-28 09:00:00,73.0,-99.9,30.28,ESE,110,16.0,18.0,-999,-99.99,,,-99.99,,2013-01-28 14:00:00,
2013-01-28 09:33:00,73.0,-99.9,30.28,ESE,110,16.0,18.0,-999,-99.99,,,-99.99,,2013-01-28 14:33:00,
2013-01-28 09:43:00,73.0,-99.9,30.28,ESE,110,16.0,18.0,-999,-99.99,,,-99.99,,2013-01-28 14:43:00,
2013-01-28 09:53:00,73.0,-99.9,30.28,ESE,110,16.0,18.0,-999,-99.99,,,-99.99,,2013-01-28 14:53:00,
2013-01-28 10:00:00,74.0,-99.9,30.30,ESE,110,16.0,18.0,-999,-99.99,,,-99.99,,2013-01-28 15:00:00,
2013-01-28 10:24:00,74.0,-99.9,30.30,ESE,110,16.0,18.0,-999,-99.99,,,-99.99,,2013-01-28 15:24:00,
2013-01-28 10:34:00,74.0,-99.9,30.30,ESE,110,16.0,18.0,-999,-99.99,,,-99.99,,2013-01-28 15:34:00,
2013-01-28 10:43:00,74.0,-99.9,30.30,ESE,110,16.0,18.0,-999,-99.99,,,-99.99,,2013-01-28 15:43:00,
2013-01-28 10:54:00,74.0,-99.9,30.30,ESE,110,16.0,18.0,-999,-99.99,,,-99.99,,2013-01-28 15:54:00,
2013-01-28 11:00:00,74.0,-99.9,30.30,East,100,17.0,20.0,-999,-99.99,,,-99.99,,2013-01-28 16:00:00,
2013-01-28 11:22:00,74.0,-99.9,30.30,East,100,17.0,20.0,-999,-99.99,,,-99.99,,2013-01-28 16:22:00,
2013-01-28 11:33:00,74.0,-99.9,30.30,East,100,17.0,20.0,-999,-99.99,,,-99.99,,2013-01-28 16:33:00,
2013-01-28 11:43:00,74.0,-99.9,30.30,East,100,17.0,20.0,-999,-99.99,,,-99.99,,2013-01-28 16:43:00,
2013-01-28 11:53:00,74.0,-99.9,30.30,East,100,17.0,20.0,-999,-99.99,,,-99.99,,2013-01-28 16:53:00,
2013-01-28 12:00:00,74.0,-99.9,30.29,East,100,14.0,16.0,-999,-99.99,,,-99.99,,2013-01-28 17:00:00,
2013-01-28 12:23:00,74.0,-99.9,30.29,East,100,14.0,16.0,-999,-99.99,,,-99.99,,2013-01-28 17:23:00,
2013-01-28 12:33:00,74.0,-99.9,30.29,East,100,14.0,16.0,-999,-99.99,,,-99.99,,2013-01-28 17:33:00,
2013-01-28 12:42:00,74.0,-99.9,30.29,East,100,14.0,16.0,-999,-99.99,,,-99.99,,2013-01-28 17:42:00,
2013-01-28 12:53:00,74.0,-99.9,30.29,East,100,14.0,16.0,-999,-99.99,,,-99.99,,2013-01-28 17:53:00,
2013-01-28 13:00:00,74.0,-99.9,30.26,ESE,110,16.0,17.0,-999,-99.99,,,-99.99,,2013-01-28 18:00:00,
2013-01-28 13:23:00,74.0,-99.9,30.26,ESE,110,16.0,17.0,-999,-99.99,,,-99.99,,2013-01-28 18:23:00,
2013-01-28 13:33:00,74.0,-99.9,30.26,ESE,110,16.0,17.0,-999,-99.99,,,-99.99,,2013-01-28 18:33:00,
2013-01-28 13:43:00,74.0,-99.9,30.26,ESE,110,16.0,17.0,-999,-99.99,,,-99.99,,2013-01-28 18:43:00,
2013-01-28 13:53:00,74.0,-99.9,30.26,ESE,110,16.0,17.0,-999,-99.99,,,-99.99,,2013-01-28 18:53:00,
2013-01-28 14:00:00,74.0,-99.9,30.23,East,100,16.0,18.0,-999,-99.99,,,-99.99,,2013-01-28 19:00:00,
2013-01-28 14:23:00,74.0,-99.9,30.23,East,100,16.0,18.0,-999,-99.99,,,-99.99,,2013-01-28 19:23:00,
2013-01-28 14:33:00,74.0,-99.9,30.23,East,100,16.0,18.0,-999,-99.99,,,-99.99,,2013-01-28 19:33:00,
2013-01-28 14:43:00,74.0,-99.9,30.23,East,100,16.0,18.0,-999,-99.99,,,-99.99,,2013-01-28 19:43:00,
2013-01-28 14:53:00,74.0,-99.9,30.23,East,100,16.0,18.0,-999,-99.99,,,-99.99,,2013-01-28 19:53:00,
2013-01-28 15:00:00,74.0,-99.9,30.22,ESE,110,15.0,17.0,-999,-99.99,,,-99.99,,2013-01-28 20:00:00,
2013-01-28 15:22:00,74.0,-99.9,30.22,ESE,110,15.0,17.0,-999,-99.99,,,-99.99,,2013-01-28 20:22:00,
2013-01-28 15:33:00,74.0,-99.9,30.22,ESE,110,15.0,17.0,-999,-99.99,,,-99.99,,2013-01-28 20:33:00,
2013-01-28 15:43:00,74.0,-99.9,30.22,ESE,110,15.0,17.0,-999,-99.99,,,-99.99,,2013-01-28 20:43:00,
2013-01-28 15:53:00,74.0,-99.9,30.22,ESE,110,15.0,17.0,-999,-99.99,,,-99.99,,2013-01-28 20:53:00,
2013-01-28 16:00:00,74.0,-99.9,30.21,ESE,120,17.0,20.0,-999,-99.99,,,-99.99,,2013-01-28 21:00:00,
2013-01-28 16:23:00,74.0,-99.9,30.21,ESE,120,17.0,20.0,-999,-99.99,,,-99.99,,2013-01-28 21:23:00,
2013-01-28 16:34:00,74.0,-99.9,30.21,ESE,120,17.0,20.0,-999,-99.99,,,-99.99,,2013-01-28 21:34:00,
2013-01-28 16:43:00,74.0,-99.9,30.21,ESE,120,17.0,20.0,-999,-99.99,,,-99.99,,2013-01-28 21:43:00,
2013-01-28 16:53:00,74.0,-99.9,30.21,ESE,120,17.0,20.0,-999,-99.99,,,-99.99,,2013-01-28 21:53:00,
2013-01-28 17:00:00,74.0,-99.9,30.22,ESE,110,16.0,18.0,-999,-99.99,,,-99.99,,2013-01-28 22:00:00,
2013-01-28 17:23:00,74.0,-99.9,30.22,ESE,110,16.0,18.0,-999,-99.99,,,-99.99,,2013-01-28 22:23:00,
2013-01-28 17:33:00,74.0,-99.9,30.22,ESE,110,16.0,18.0,-999,-99.99,,,-99.99,,2013-01-28 22:33:00,
2013-01-28 17:43:00,74.0,-99.9,30.22,ESE,110,16.0,18.0,-999,-99.99,,,-99.99,,2013-01-28 22:43:00,
2013-01-28 17:53:00,74.0,-99.9,30.22,ESE,110,16.0,18.0,-999,-99.99,,,-99.99,,2013-01-28 22:53:00,
2013-01-28 18:00:00,74.0,-99.9,30.22,ESE,110,14.0,16.0,-999,-99.99,,,-99.99,,2013-01-28 23:00:00,
2013-01-28 18:22:00,74.0,-99.9,30.22,ESE,110,14.0,16.0,-999,-99.99,,,-99.99,,2013-01-28 23:22:00,
2013-01-28 18:33:00,74.0,-99.9,30.22,ESE,110,14.0,16.0,-999,-99.99,,,-99.99,,2013-01-28 23:33:00,
2013-01-28 18:42:00,74.0,-99.9,30.22,ESE,110,14.0,16.0,-999,-99.99,,,-99.99,,2013-01-28 23:42:00,
2013-01-28 18:53:00,74.0,-99.9,30.22,ESE,110,14.0,16.0,-999,-99.99,,,-99.99,,2013-01-28 23:53:00,
2013-01-28 19:00:00,74.0,-99.9,30.23,East,100,15.0,16.0,-999,-99.99,,,-99.99,,2013-01-29 00:00:00,
2013-01-28 19:22:00,74.0,-99.9,30.23,East,100,15.0,16.0,-999,-99.99,,,-99.99,,2013-01-29 00:22:00,
2013-01-28 19:33:00,74.0,-99.9,30.23,East,100,15.0,16.0,-999,-99.99,,,-99.99,,2013-01-29 00:33:00,
2013-01-28 19:42:00,74.0,-99.9,30.23,East,100,15.0,16.0,-999,-99.99,,,-99.99,,2013-01-29 00:42:00,
2013-01-28 19:52:00,74.0,-99.9,30.23,East,100,15.0,16.0,-999,-99.99,,,-99.99,,2013-01-29 00:52:00,
2013-01-28 20:00:00,74.0,-99.9,30.23,East,100,14.0,15.0,-999,-99.99,,,-99.99,,2013-01-29 01:00:00,
2013-01-28 20:23:00,74.0,-99.9,30.23,East,100,14.0,15.0,-999,-99.99,,,-99.99,,2013-01-29 01:23:00,
2013-01-28 20:32:00,74.0,-99.9,30.23,East,100,14.0,15.0,-999,-99.99,,,-99.99,,2013-01-29 01:32:00,
2013-01-28 20:42:00,74.0,-99.9,30.23,East,100,14.0,15.0,-999,-99.99,,,-99.99,,2013-01-29 01:42:00,
2013-01-28 20:53:00,74.0,-99.9,30.23,East,100,14.0,15.0,-999,-99.99,,,-99.99,,2013-01-29 01:53:00,
2013-01-28 21:00:00,74.0,-99.9,30.23,East,100,15.0,16.0,-999,-99.99,,,-99.99,,2013-01-29 02:00:00,
2013-01-28 21:22:00,74.0,-99.9,30.23,East,100,15.0,16.0,-999,-99.99,,,-99.99,,2013-01-29 02:22:00,
2013-01-28 21:33:00,74.0,-99.9,30.23,East,100,15.0,16.0,-999,-99.99,,,-99.99,,2013-01-29 02:33:00,
2013-01-28 21:42:00,74.0,-99.9,30.23,East,100,15.0,16.0,-999,-99.99,,,-99.99,,2013-01-29 02:42:00,
2013-01-28 21:53:00,74.0,-99.9,30.23,East,100,15.0,16.0,-999,-99.99,,,-99.99,,2013-01-29 02:53:00,
2013-01-28 22:00:00,75.0,-99.9,30.23,East,100,14.0,16.0,-999,-99.99,,,-99.99,,2013-01-29 03:00:00,
2013-01-28 22:22:00,75.0,-99.9,30.23,East,100,14.0,16.0,-999,-99.99,,,-99.99,,2013-01-29 03:22:00,
2013-01-28 22:32:00,75.0,-99.9,30.23,East,100,14.0,16.0,-999,-99.99,,,-99.99,,2013-01-29 03:32:00,
2013-01-28 22:42:00,75.0,-99.9,30.23,East,100,14.0,16.0,-999,-99.99,,,-99.99,,2013-01-29 03:42:00,
2013-01-28 22:53:00,75.0,-99.9,30.23,East,100,14.0,16.0,-999,-99.99,,,-99.99,,2013-01-29 03:53:00,
2013-01-28 23:00:00,75.0,-99.9,30.22,ESE,120,15.0,16.0,-999,-99.99,,,-99.99,,2013-01-29 04:00:00,
2013-01-28 23:22:00,75.0,-99.9,30.22,ESE,120,15.0,16.0,-999,-99.99,,,-99.99,,2013-01-29 04:22:00,
2013-01-28 23:32:00,75.0,-99.9,30.22,ESE,120,15.0,16.0,-999,-99.99,,,-99.99,,2013-01-29 04:32:00,
2013-01-28 23:42:00,75.0,-99.9,30.22,ESE,120,15.0,16.0,-999,-99.99,,,-99.99,,2013-01-29 04:42:00,
2013-01-28 23:52:00,75.0,-99.9,30.22,ESE,120,15.0,16.0,-999,-99.99,,,-99.99,,2013-01-29 04:52:00,